createdAt,value
2022-12-01T00:00:48.591Z,0.00
2022-12-01T00:01:48.974Z,0.00
2022-12-01T00:02:49.303Z,0.00
2022-12-01T00:03:49.352Z,0.00
2022-12-01T00:04:49.621Z,0.00
2022-12-01T00:05:49.893Z,0.00
2022-12-01T00:06:50.169Z,0.00
2022-12-01T00:07:50.531Z,0.00
2022-12-01T00:08:50.815Z,0.00
2022-12-01T00:09:51.131Z,0.00
2022-12-01T00:10:51.332Z,0.00
2022-12-01T00:11:51.651Z,0.00
2022-12-01T00:12:51.927Z,0.00
2022-12-01T00:13:52.247Z,0.00
2022-12-01T00:14:52.582Z,0.00
2022-12-01T00:15:52.794Z,0.00
2022-12-01T00:16:53.157Z,0.00
2022-12-01T00:17:53.293Z,0.00
2022-12-01T00:18:53.564Z,0.00
2022-12-01T00:19:53.863Z,0.00
2022-12-01T00:20:54.207Z,0.00
2022-12-01T00:21:54.535Z,0.00
2022-12-01T00:22:54.721Z,0.00
2022-12-01T00:23:55.070Z,0.00
2022-12-01T00:24:55.320Z,0.00
2022-12-01T00:25:55.572Z,0.00
2022-12-01T00:26:55.867Z,0.00
2022-12-01T00:27:56.096Z,0.00
2022-12-01T00:28:56.365Z,0.00
2022-12-01T00:29:56.643Z,0.00
2022-12-01T00:30:56.946Z,0.00
2022-12-01T00:31:57.281Z,0.00
2022-12-01T00:32:57.542Z,0.00
2022-12-01T00:33:57.837Z,0.00
2022-12-01T00:34:58.104Z,0.00
2022-12-01T00:35:58.412Z,0.00
2022-12-01T00:36:58.733Z,0.00
2022-12-01T00:37:59.024Z,0.00
2022-12-01T00:38:59.382Z,0.00
2022-12-01T00:39:59.680Z,0.00
2022-12-01T00:40:59.886Z,0.00
2022-12-01T00:42:00.218Z,0.00
2022-12-01T00:43:00.557Z,0.00
2022-12-01T00:44:00.698Z,0.00
2022-12-01T00:45:01.027Z,0.00
2022-12-01T00:46:01.452Z,0.00
2022-12-01T00:47:01.628Z,0.00
2022-12-01T00:48:01.792Z,0.00
2022-12-01T00:49:02.073Z,0.00
2022-12-01T00:50:02.436Z,0.00
2022-12-01T00:51:02.734Z,0.00
2022-12-01T00:52:02.966Z,0.00
2022-12-01T00:53:03.251Z,0.00
2022-12-01T00:54:03.591Z,0.00
2022-12-01T00:55:03.860Z,0.00
2022-12-01T00:56:04.206Z,0.00
2022-12-01T00:57:04.448Z,0.00
2022-12-01T00:58:04.744Z,0.00
2022-12-01T00:59:05.036Z,0.00
2022-12-01T01:00:05.340Z,0.00
2022-12-01T01:01:05.694Z,0.00
2022-12-01T01:02:06.000Z,0.00
2022-12-01T01:03:06.217Z,0.00
2022-12-01T01:04:06.559Z,0.00
2022-12-01T01:05:06.717Z,0.00
2022-12-01T01:06:07.047Z,0.00
2022-12-01T01:07:07.396Z,0.00
2022-12-01T01:08:07.728Z,0.00
2022-12-01T01:09:07.900Z,0.00
2022-12-01T01:10:08.201Z,0.00
2022-12-01T01:11:08.544Z,0.00
2022-12-01T01:12:08.771Z,0.00
2022-12-01T01:13:09.019Z,0.00
2022-12-01T01:14:09.203Z,0.00
2022-12-01T01:15:09.510Z,0.00
2022-12-01T01:16:09.940Z,0.00
2022-12-01T01:17:10.146Z,0.00
2022-12-01T01:18:10.400Z,0.00
2022-12-01T01:19:10.720Z,0.00
2022-12-01T01:20:10.999Z,0.00
2022-12-01T01:21:11.365Z,0.00
2022-12-01T01:22:11.510Z,0.00
2022-12-01T01:23:11.852Z,0.00
2022-12-01T01:24:12.111Z,0.00
2022-12-01T01:25:12.397Z,0.00
2022-12-01T01:26:12.700Z,0.00
2022-12-01T01:27:13.032Z,0.00
2022-12-01T01:28:13.393Z,0.00
2022-12-01T01:29:13.689Z,0.00
2022-12-01T01:30:13.911Z,0.00
2022-12-01T01:31:14.263Z,0.00
2022-12-01T01:32:14.481Z,0.00
2022-12-01T01:33:14.741Z,0.00
2022-12-01T01:34:15.054Z,0.00
2022-12-01T01:35:15.433Z,0.00
2022-12-01T01:36:15.724Z,0.00
2022-12-01T01:37:16.038Z,0.00
2022-12-01T01:38:16.341Z,0.00
2022-12-01T01:39:16.690Z,0.00
2022-12-01T01:40:16.992Z,0.00
2022-12-01T01:41:17.328Z,0.00
2022-12-01T01:42:17.595Z,0.00
2022-12-01T01:43:17.994Z,0.00
2022-12-01T01:44:18.123Z,0.00
2022-12-01T01:45:18.451Z,0.00
2022-12-01T01:46:18.797Z,0.00
2022-12-01T01:47:18.986Z,0.00
2022-12-01T01:48:19.304Z,0.00
2022-12-01T01:49:19.593Z,0.00
2022-12-01T01:50:19.930Z,0.00
2022-12-01T01:51:20.250Z,0.00
2022-12-01T01:52:20.583Z,0.00
2022-12-01T01:53:20.779Z,0.00
2022-12-01T01:54:21.089Z,0.00
2022-12-01T01:55:21.332Z,0.00
2022-12-01T01:56:21.655Z,0.00
2022-12-01T01:57:22.002Z,0.00
2022-12-01T01:58:22.184Z,0.00
2022-12-01T01:59:22.546Z,0.00
2022-12-01T02:00:22.814Z,0.00
2022-12-01T02:01:23.140Z,0.00
2022-12-01T02:02:23.571Z,0.00
2022-12-01T02:03:23.820Z,0.00
2022-12-01T02:04:23.975Z,0.00
2022-12-01T02:05:24.253Z,0.00
2022-12-01T02:06:24.565Z,0.00
2022-12-01T02:07:24.888Z,0.00
2022-12-01T02:08:25.196Z,0.00
2022-12-01T02:09:25.503Z,0.00
2022-12-01T02:10:25.765Z,0.00
2022-12-01T02:11:26.070Z,0.00
2022-12-01T02:12:26.425Z,0.00
2022-12-01T02:13:26.599Z,0.00
2022-12-01T02:14:26.846Z,0.00
2022-12-01T02:15:27.127Z,0.00
2022-12-01T02:16:27.536Z,0.00
2022-12-01T02:17:27.659Z,0.00
2022-12-01T02:18:27.977Z,0.00
2022-12-01T02:19:28.279Z,0.00
2022-12-01T02:20:28.547Z,0.00
2022-12-01T02:21:28.909Z,0.00
2022-12-01T02:22:29.089Z,0.00
2022-12-01T02:23:29.355Z,0.00
2022-12-01T02:24:29.680Z,0.00
2022-12-01T02:25:29.952Z,0.00
2022-12-01T02:26:30.250Z,0.00
2022-12-01T02:27:30.527Z,0.00
2022-12-01T02:28:30.799Z,0.00
2022-12-01T02:29:31.072Z,0.00
2022-12-01T02:30:31.354Z,0.00
2022-12-01T02:31:31.661Z,0.00
2022-12-01T02:32:31.950Z,0.00
2022-12-01T02:33:32.206Z,0.00
2022-12-01T02:34:32.469Z,0.00
2022-12-01T02:35:32.711Z,0.00
2022-12-01T02:36:32.993Z,0.00
2022-12-01T02:37:33.262Z,0.00
2022-12-01T02:38:33.546Z,0.00
2022-12-01T02:39:33.873Z,0.00
2022-12-01T02:40:34.159Z,0.00
2022-12-01T02:41:34.467Z,0.00
2022-12-01T02:42:34.720Z,0.00
2022-12-01T02:43:35.002Z,0.00
2022-12-01T02:44:35.349Z,0.00
2022-12-01T02:45:35.611Z,0.00
2022-12-01T02:46:35.986Z,0.00
2022-12-01T02:47:36.150Z,0.00
2022-12-01T02:48:36.501Z,0.00
2022-12-01T02:49:36.772Z,0.00
2022-12-01T02:50:37.040Z,0.00
2022-12-01T02:51:37.393Z,0.00
2022-12-01T02:52:37.613Z,0.00
2022-12-01T02:53:37.842Z,0.00
2022-12-01T02:54:38.059Z,0.00
2022-12-01T02:55:38.369Z,0.00
2022-12-01T02:56:38.728Z,0.00
2022-12-01T02:57:38.991Z,0.00
2022-12-01T02:58:39.251Z,0.00
2022-12-01T02:59:39.523Z,0.00
2022-12-01T03:00:39.789Z,0.00
2022-12-01T03:01:40.104Z,0.00
2022-12-01T03:02:40.431Z,0.00
2022-12-01T03:03:40.707Z,0.00
2022-12-01T03:04:40.981Z,0.00
2022-12-01T03:05:41.261Z,0.00
2022-12-01T03:06:41.585Z,0.00
2022-12-01T03:07:41.875Z,0.00
2022-12-01T03:08:42.171Z,0.00
2022-12-01T03:09:42.500Z,0.00
2022-12-01T03:10:42.752Z,0.00
2022-12-01T03:11:43.045Z,0.00
2022-12-01T03:12:43.328Z,0.00
2022-12-01T03:13:43.614Z,0.00
2022-12-01T03:14:43.873Z,0.00
2022-12-01T03:15:44.214Z,0.00
2022-12-01T03:16:44.479Z,0.00
2022-12-01T03:17:44.754Z,0.00
2022-12-01T03:18:45.026Z,0.00
2022-12-01T03:19:45.419Z,0.00
2022-12-01T03:20:45.645Z,0.00
2022-12-01T03:21:45.924Z,0.00
2022-12-01T03:22:46.174Z,0.00
2022-12-01T03:23:46.482Z,0.00
2022-12-01T03:24:46.786Z,0.00
2022-12-01T03:25:47.067Z,0.00
2022-12-01T03:26:47.335Z,0.00
2022-12-01T03:28:19.358Z,0.00
2022-12-01T03:28:48.930Z,0.00
2022-12-01T03:29:48.493Z,0.00
2022-12-01T03:30:48.612Z,0.00
2022-12-01T03:31:48.880Z,0.00
2022-12-01T03:32:49.087Z,0.00
2022-12-01T03:33:49.379Z,0.00
2022-12-01T03:34:49.645Z,0.00
2022-12-01T03:35:49.936Z,0.00
2022-12-01T03:36:50.214Z,0.00
2022-12-01T03:37:50.557Z,0.00
2022-12-01T03:38:50.877Z,0.00
2022-12-01T03:39:53.751Z,0.00
2022-12-01T03:40:52.537Z,0.00
2022-12-01T03:41:51.827Z,0.00
2022-12-01T03:42:51.995Z,0.00
2022-12-01T03:43:52.287Z,0.00
2022-12-01T03:44:52.566Z,0.00
2022-12-01T03:45:52.857Z,0.00
2022-12-01T03:46:53.169Z,0.00
2022-12-01T03:47:53.457Z,0.00
2022-12-01T03:48:53.810Z,0.00
2022-12-01T03:49:53.953Z,0.00
2022-12-01T03:50:54.226Z,0.00
2022-12-01T03:51:54.556Z,0.00
2022-12-01T03:52:54.821Z,0.00
2022-12-01T03:53:55.128Z,0.00
2022-12-01T03:54:55.395Z,0.00
2022-12-01T03:55:55.706Z,0.00
2022-12-01T03:56:55.970Z,0.00
2022-12-01T03:57:56.212Z,0.00
2022-12-01T03:58:56.482Z,0.00
2022-12-01T03:59:56.788Z,0.00
2022-12-01T04:00:57.139Z,0.00
2022-12-01T04:01:57.489Z,0.00
2022-12-01T04:02:57.684Z,0.00
2022-12-01T04:03:57.992Z,0.00
2022-12-01T04:04:58.380Z,0.00
2022-12-01T04:05:58.608Z,0.00
2022-12-01T04:06:58.931Z,0.00
2022-12-01T04:07:59.240Z,0.00
2022-12-01T04:08:59.460Z,0.00
2022-12-01T04:09:59.775Z,0.00
2022-12-01T04:11:00.038Z,0.00
2022-12-01T04:12:00.329Z,0.00
2022-12-01T04:13:00.591Z,0.00
2022-12-01T04:14:00.944Z,0.00
2022-12-01T04:15:01.071Z,0.00
2022-12-01T04:16:01.386Z,0.00
2022-12-01T04:17:01.662Z,0.00
2022-12-01T04:18:01.892Z,0.00
2022-12-01T04:19:02.152Z,0.00
2022-12-01T04:20:02.382Z,0.00
2022-12-01T04:21:02.640Z,0.00
2022-12-01T04:22:02.910Z,0.00
2022-12-01T04:23:03.161Z,0.00
2022-12-01T04:24:03.418Z,0.00
2022-12-01T04:25:03.646Z,0.00
2022-12-01T04:26:03.893Z,0.00
2022-12-01T04:27:04.176Z,0.00
2022-12-01T04:28:04.436Z,0.00
2022-12-01T04:29:04.691Z,0.00
2022-12-01T04:30:04.943Z,0.00
2022-12-01T04:31:05.221Z,0.00
2022-12-01T04:32:05.467Z,0.00
2022-12-01T04:33:05.713Z,0.00
2022-12-01T04:34:05.966Z,0.00
2022-12-01T04:35:06.224Z,0.00
2022-12-01T04:36:06.464Z,0.00
2022-12-01T04:37:06.735Z,0.00
2022-12-01T04:38:06.964Z,0.00
2022-12-01T04:39:07.225Z,0.00
2022-12-01T04:40:07.562Z,0.00
2022-12-01T04:41:07.798Z,0.00
2022-12-01T04:42:08.059Z,0.00
2022-12-01T04:43:08.324Z,0.00
2022-12-01T04:44:08.573Z,0.00
2022-12-01T04:45:08.835Z,0.00
2022-12-01T04:46:09.123Z,0.00
2022-12-01T04:47:09.416Z,0.00
2022-12-01T04:48:09.699Z,0.00
2022-12-01T04:49:09.952Z,0.00
2022-12-01T04:50:10.175Z,0.00
2022-12-01T04:51:10.467Z,0.00
2022-12-01T04:52:10.716Z,0.00
2022-12-01T04:53:10.965Z,0.00
2022-12-01T04:54:11.246Z,0.00
2022-12-01T04:55:11.497Z,0.00
2022-12-01T04:56:11.740Z,0.00
2022-12-01T04:57:12.016Z,0.00
2022-12-01T04:58:12.255Z,0.00
2022-12-01T04:59:12.508Z,0.00
2022-12-01T05:00:12.726Z,0.00
2022-12-01T05:01:13.066Z,0.00
2022-12-01T05:02:13.390Z,0.00
2022-12-01T05:03:15.211Z,0.00
2022-12-01T05:04:13.914Z,0.00
2022-12-01T05:05:14.202Z,0.00
2022-12-01T05:06:14.448Z,0.00
2022-12-01T05:07:14.699Z,0.00
2022-12-01T05:08:14.928Z,0.00
2022-12-01T05:09:17.535Z,0.00
2022-12-01T05:10:15.506Z,0.00
2022-12-01T05:11:15.757Z,0.00
2022-12-01T05:12:16.039Z,0.00
2022-12-01T05:13:16.268Z,0.00
2022-12-01T05:14:16.527Z,0.00
2022-12-01T05:15:16.752Z,0.00
2022-12-01T05:16:17.156Z,0.00
2022-12-01T05:17:17.458Z,0.00
2022-12-01T05:18:18.704Z,0.00
2022-12-01T05:19:17.980Z,0.00
2022-12-01T05:20:18.249Z,0.00
2022-12-01T05:21:18.526Z,0.00
2022-12-01T05:22:36.403Z,0.00
2022-12-01T05:23:20.029Z,0.00
2022-12-01T05:24:19.358Z,0.00
2022-12-01T05:25:19.616Z,0.00
2022-12-01T05:26:19.894Z,0.00
2022-12-01T05:27:20.142Z,0.00
2022-12-01T05:28:20.416Z,0.00
2022-12-01T05:29:20.680Z,0.00
2022-12-01T05:30:24.376Z,0.00
2022-12-01T05:31:22.199Z,0.00
2022-12-01T05:32:21.511Z,0.00
2022-12-01T05:33:21.795Z,0.00
2022-12-01T05:34:22.049Z,0.00
2022-12-01T05:35:22.310Z,0.00
2022-12-01T05:36:22.530Z,0.00
2022-12-01T05:37:22.918Z,0.00
2022-12-01T05:38:23.172Z,0.00
2022-12-01T05:39:23.412Z,0.00
2022-12-01T05:40:23.671Z,0.00
2022-12-01T05:41:23.911Z,0.00
2022-12-01T05:42:24.171Z,0.00
2022-12-01T05:43:29.058Z,0.00
2022-12-01T05:44:25.634Z,0.00
2022-12-01T05:45:24.959Z,0.00
2022-12-01T05:46:25.272Z,0.00
2022-12-01T05:47:25.452Z,0.00
2022-12-01T05:48:25.701Z,0.00
2022-12-01T05:49:25.930Z,0.00
2022-12-01T05:50:26.174Z,0.00
2022-12-01T05:51:26.403Z,0.00
2022-12-01T05:52:26.662Z,0.00
2022-12-01T05:53:26.893Z,0.00
2022-12-01T05:54:27.147Z,0.00
2022-12-01T05:55:27.382Z,0.00
2022-12-01T05:56:27.633Z,0.00
2022-12-01T05:57:27.883Z,0.00
2022-12-01T05:58:28.133Z,0.00
2022-12-01T05:59:28.375Z,0.00
2022-12-01T06:00:28.687Z,0.00
2022-12-01T06:01:28.889Z,0.00
2022-12-01T06:02:29.142Z,0.00
2022-12-01T06:03:29.376Z,0.00
2022-12-01T06:04:29.648Z,0.00
2022-12-01T06:05:29.854Z,0.00
2022-12-01T06:06:30.102Z,0.00
2022-12-01T06:07:30.379Z,0.00
2022-12-01T06:08:30.586Z,0.00
2022-12-01T06:09:30.837Z,0.00
2022-12-01T06:10:31.108Z,0.00
2022-12-01T06:11:31.329Z,0.00
2022-12-01T06:12:31.607Z,0.00
2022-12-01T06:13:31.842Z,0.00
2022-12-01T06:14:32.112Z,0.00
2022-12-01T06:15:32.333Z,0.00
2022-12-01T06:16:32.610Z,0.00
2022-12-01T06:17:38.499Z,0.00
2022-12-01T06:18:34.120Z,0.00
2022-12-01T06:19:33.435Z,0.00
2022-12-01T06:20:33.676Z,0.00
2022-12-01T06:21:33.936Z,0.00
2022-12-01T06:22:34.185Z,0.00
2022-12-01T06:23:34.426Z,0.00
2022-12-01T06:24:34.666Z,0.00
2022-12-01T06:25:34.937Z,0.00
2022-12-01T06:26:35.177Z,0.00
2022-12-01T06:27:35.486Z,0.00
2022-12-01T06:28:35.730Z,0.00
2022-12-01T06:29:40.653Z,0.00
2022-12-01T06:30:37.288Z,0.00
2022-12-01T06:31:36.639Z,0.00
2022-12-01T06:32:36.888Z,0.00
2022-12-01T06:33:37.147Z,0.00
2022-12-01T06:34:37.380Z,0.00
2022-12-01T06:35:37.627Z,0.00
2022-12-01T06:36:38.179Z,0.00
2022-12-01T06:37:38.860Z,0.00
2022-12-01T06:38:38.446Z,0.00
2022-12-01T06:39:38.717Z,0.00
2022-12-01T06:40:38.981Z,0.00
2022-12-01T06:41:39.282Z,0.00
2022-12-01T06:42:39.553Z,0.00
2022-12-01T06:43:39.793Z,0.00
2022-12-01T06:44:40.079Z,0.00
2022-12-01T06:45:40.381Z,0.00
2022-12-01T06:46:40.630Z,0.00
2022-12-01T06:47:40.903Z,0.00
2022-12-01T06:48:41.161Z,0.00
2022-12-01T06:49:41.436Z,0.00
2022-12-01T06:50:41.671Z,0.00
2022-12-01T06:51:41.929Z,0.00
2022-12-01T06:52:42.190Z,0.00
2022-12-01T06:53:42.600Z,0.00
2022-12-01T06:54:42.719Z,0.00
2022-12-01T06:55:42.975Z,0.00
2022-12-01T06:56:43.260Z,0.00
2022-12-01T06:57:43.550Z,0.00
2022-12-01T06:58:43.948Z,0.00
2022-12-01T06:59:44.213Z,0.00
2022-12-01T07:00:47.725Z,0.00
2022-12-01T07:01:45.783Z,0.00
2022-12-01T07:02:45.073Z,0.00
2022-12-01T07:03:45.325Z,0.00
2022-12-01T07:04:45.588Z,0.00
2022-12-01T07:05:45.862Z,0.00
2022-12-01T07:06:46.112Z,0.00
2022-12-01T07:07:46.426Z,0.00
2022-12-01T07:08:46.692Z,0.00
2022-12-01T07:09:47.139Z,0.00
2022-12-01T07:10:47.273Z,0.00
2022-12-01T07:11:47.535Z,0.00
2022-12-01T07:12:48.445Z,0.00
2022-12-01T07:13:48.032Z,0.00
2022-12-01T07:14:48.293Z,0.00
2022-12-01T07:15:48.547Z,0.00
2022-12-01T07:16:48.895Z,0.00
2022-12-01T07:17:49.148Z,0.00
2022-12-01T07:18:49.408Z,0.00
2022-12-01T07:19:50.005Z,0.00
2022-12-01T07:20:49.935Z,0.00
2022-12-01T07:21:50.195Z,0.00
2022-12-01T07:22:50.493Z,0.00
2022-12-01T07:23:50.754Z,0.00
2022-12-01T07:24:51.014Z,0.00
2022-12-01T07:25:51.304Z,0.00
2022-12-01T07:26:51.573Z,0.00
2022-12-01T07:27:51.843Z,0.00
2022-12-01T07:28:52.116Z,5.62
2022-12-01T07:29:52.384Z,5.62
2022-12-01T07:30:52.719Z,5.62
2022-12-01T07:31:52.996Z,5.62
2022-12-01T07:32:53.304Z,5.62
2022-12-01T07:33:53.569Z,5.62
2022-12-01T07:34:53.843Z,5.62
2022-12-01T07:35:54.114Z,5.62
2022-12-01T07:36:54.387Z,5.62
2022-12-01T07:37:54.674Z,5.62
2022-12-01T07:38:54.932Z,5.62
2022-12-01T07:39:55.198Z,5.62
2022-12-01T07:40:55.473Z,5.62
2022-12-01T07:41:55.746Z,5.62
2022-12-01T07:42:56.051Z,5.62
2022-12-01T07:43:56.304Z,5.62
2022-12-01T07:44:56.620Z,5.62
2022-12-01T07:45:56.912Z,5.62
2022-12-01T07:46:57.162Z,5.62
2022-12-01T07:47:57.479Z,5.62
2022-12-01T07:48:57.740Z,5.62
2022-12-01T07:49:58.295Z,5.62
2022-12-01T07:50:58.252Z,5.62
2022-12-01T07:51:58.526Z,5.62
2022-12-01T07:52:58.816Z,5.62
2022-12-01T07:53:59.077Z,5.62
2022-12-01T07:54:59.352Z,5.62
2022-12-01T07:56:02.068Z,5.62
2022-12-01T07:57:00.858Z,5.62
2022-12-01T07:58:00.205Z,5.62
2022-12-01T07:59:01.237Z,11.25
2022-12-01T08:00:00.815Z,11.25
2022-12-01T08:01:01.106Z,11.25
2022-12-01T08:02:01.383Z,11.25
2022-12-01T08:03:02.350Z,11.25
2022-12-01T08:04:01.848Z,11.25
2022-12-01T08:05:02.129Z,11.25
2022-12-01T08:06:03.156Z,11.25
2022-12-01T08:07:02.657Z,11.25
2022-12-01T08:08:02.949Z,11.25
2022-12-01T08:09:03.970Z,11.25
2022-12-01T08:10:04.259Z,16.88
2022-12-01T08:11:03.719Z,16.88
2022-12-01T08:12:04.000Z,16.88
2022-12-01T08:13:04.280Z,16.88
2022-12-01T08:14:04.561Z,22.50
2022-12-01T08:15:04.833Z,22.50
2022-12-01T08:16:05.186Z,22.50
2022-12-01T08:17:05.361Z,22.50
2022-12-01T08:18:05.649Z,22.50
2022-12-01T08:19:05.940Z,22.50
2022-12-01T08:20:06.217Z,22.50
2022-12-01T08:21:06.500Z,22.50
2022-12-01T08:22:06.782Z,22.50
2022-12-01T08:23:07.091Z,22.50
2022-12-01T08:24:07.369Z,22.50
2022-12-01T08:25:07.651Z,22.50
2022-12-01T08:26:07.932Z,22.50
2022-12-01T08:27:08.254Z,22.50
2022-12-01T08:28:08.541Z,28.12
2022-12-01T08:29:08.819Z,28.12
2022-12-01T08:30:09.112Z,28.12
2022-12-01T08:31:09.527Z,33.75
2022-12-01T08:32:09.652Z,33.75
2022-12-01T08:33:09.963Z,33.75
2022-12-01T08:34:10.228Z,33.75
2022-12-01T08:35:10.630Z,33.75
2022-12-01T08:36:10.804Z,39.38
2022-12-01T08:37:10.986Z,39.38
2022-12-01T08:38:11.337Z,39.38
2022-12-01T08:39:11.622Z,39.38
2022-12-01T08:40:11.913Z,45.00
2022-12-01T08:41:12.192Z,45.00
2022-12-01T08:42:12.464Z,45.00
2022-12-01T08:43:28.276Z,45.00
2022-12-01T08:44:14.064Z,45.00
2022-12-01T08:45:13.302Z,45.00
2022-12-01T08:46:13.704Z,50.62
2022-12-01T08:47:17.309Z,50.62
2022-12-01T08:48:14.165Z,50.62
2022-12-01T08:49:14.446Z,50.62
2022-12-01T08:50:14.714Z,50.62
2022-12-01T08:51:15.014Z,50.62
2022-12-01T08:52:15.405Z,50.62
2022-12-01T08:53:15.574Z,50.62
2022-12-01T08:54:15.867Z,50.62
2022-12-01T08:55:16.238Z,56.25
2022-12-01T08:56:16.423Z,56.25
2022-12-01T08:57:16.798Z,56.25
2022-12-01T08:58:17.055Z,50.62
2022-12-01T08:59:17.259Z,56.25
2022-12-01T09:00:17.565Z,56.25
2022-12-01T09:01:18.006Z,56.25
2022-12-01T09:02:18.179Z,56.25
2022-12-01T09:03:18.695Z,61.88
2022-12-01T09:04:18.877Z,61.88
2022-12-01T09:05:19.033Z,56.25
2022-12-01T09:06:19.322Z,61.88
2022-12-01T09:07:24.666Z,61.88
2022-12-01T09:08:20.868Z,61.88
2022-12-01T09:09:20.207Z,61.88
2022-12-01T09:10:20.495Z,61.88
2022-12-01T09:11:20.800Z,61.88
2022-12-01T09:12:21.056Z,61.88
2022-12-01T09:13:21.366Z,61.88
2022-12-01T09:14:21.637Z,61.88
2022-12-01T09:15:21.921Z,61.88
2022-12-01T09:16:22.284Z,61.88
2022-12-01T09:17:22.465Z,61.88
2022-12-01T09:18:22.778Z,61.88
2022-12-01T09:19:25.048Z,61.88
2022-12-01T09:20:23.419Z,56.25
2022-12-01T09:21:23.680Z,56.25
2022-12-01T09:22:23.986Z,50.62
2022-12-01T09:23:24.281Z,50.62
2022-12-01T09:24:24.557Z,50.62
2022-12-01T09:25:24.838Z,50.62
2022-12-01T09:26:25.120Z,50.62
2022-12-01T09:27:25.397Z,56.25
2022-12-01T09:28:25.690Z,56.25
2022-12-01T09:29:25.963Z,56.25
2022-12-01T09:30:26.286Z,56.25
2022-12-01T09:31:26.641Z,56.25
2022-12-01T09:32:26.839Z,56.25
2022-12-01T09:33:27.164Z,56.25
2022-12-01T09:34:27.461Z,56.25
2022-12-01T09:35:27.764Z,56.25
2022-12-01T09:36:28.048Z,56.25
2022-12-01T09:37:28.328Z,56.25
2022-12-01T09:38:28.620Z,56.25
2022-12-01T09:39:28.921Z,56.25
2022-12-01T09:40:29.190Z,61.88
2022-12-01T09:41:29.509Z,61.88
2022-12-01T09:42:35.211Z,61.88
2022-12-01T09:43:31.067Z,61.88
2022-12-01T09:44:30.315Z,61.88
2022-12-01T09:45:30.591Z,56.25
2022-12-01T09:46:30.908Z,56.25
2022-12-01T09:47:31.183Z,56.25
2022-12-01T09:48:31.531Z,56.25
2022-12-01T09:49:31.832Z,56.25
2022-12-01T09:50:32.141Z,56.25
2022-12-01T09:51:32.471Z,56.25
2022-12-01T09:52:32.807Z,56.25
2022-12-01T09:53:33.113Z,61.88
2022-12-01T09:54:33.402Z,61.88
2022-12-01T09:55:33.713Z,61.88
2022-12-01T09:56:34.014Z,61.88
2022-12-01T09:57:34.326Z,61.88
2022-12-01T09:58:34.676Z,61.88
2022-12-01T09:59:34.864Z,61.88
2022-12-01T10:00:35.231Z,61.88
2022-12-01T10:01:35.452Z,61.88
2022-12-01T10:02:35.714Z,61.88
2022-12-01T10:03:35.944Z,61.88
2022-12-01T10:04:36.227Z,61.88
2022-12-01T10:05:36.565Z,61.88
2022-12-01T10:06:36.851Z,61.88
2022-12-01T10:07:37.098Z,61.88
2022-12-01T10:08:37.319Z,67.50
2022-12-01T10:09:37.507Z,67.50
2022-12-01T10:10:37.816Z,67.50
2022-12-01T10:11:38.127Z,67.50
2022-12-01T10:12:38.436Z,67.50
2022-12-01T10:13:38.787Z,73.12
2022-12-01T10:14:46.443Z,67.50
2022-12-01T10:15:39.185Z,67.50
2022-12-01T10:16:39.504Z,61.88
2022-12-01T10:17:39.753Z,56.25
2022-12-01T10:18:40.036Z,56.25
2022-12-01T10:19:40.294Z,50.62
2022-12-01T10:20:40.564Z,50.62
2022-12-01T10:21:40.855Z,50.62
2022-12-01T10:22:41.115Z,45.00
2022-12-01T10:23:41.403Z,39.38
2022-12-01T10:24:41.662Z,39.38
2022-12-01T10:25:41.915Z,39.38
2022-12-01T10:26:42.188Z,39.38
2022-12-01T10:27:42.446Z,39.38
2022-12-01T10:28:42.725Z,39.38
2022-12-01T10:29:47.402Z,39.38
2022-12-01T10:30:43.276Z,33.75
2022-12-01T10:31:44.284Z,33.75
2022-12-01T10:32:43.813Z,39.38
2022-12-01T10:33:44.089Z,39.38
2022-12-01T10:34:44.346Z,39.38
2022-12-01T10:35:44.637Z,45.00
2022-12-01T10:36:44.895Z,39.38
2022-12-01T10:37:45.224Z,39.38
2022-12-01T10:38:45.517Z,39.38
2022-12-01T10:39:45.787Z,45.00
2022-12-01T10:40:46.045Z,45.00
2022-12-01T10:41:46.313Z,45.00
2022-12-01T10:42:46.579Z,45.00
2022-12-01T10:43:46.858Z,45.00
2022-12-01T10:44:47.142Z,45.00
2022-12-01T10:45:47.585Z,45.00
2022-12-01T10:46:47.716Z,50.62
2022-12-01T10:47:48.157Z,56.25
2022-12-01T10:48:48.268Z,56.25
2022-12-01T10:49:48.855Z,56.25
2022-12-01T10:50:48.869Z,56.25
2022-12-01T10:51:49.147Z,56.25
2022-12-01T10:52:49.430Z,50.62
2022-12-01T10:53:49.717Z,50.62
2022-12-01T10:54:49.991Z,50.62
2022-12-01T10:55:50.248Z,50.62
2022-12-01T10:56:50.538Z,50.62
2022-12-01T10:57:50.789Z,50.62
2022-12-01T10:58:51.071Z,56.25
2022-12-01T10:59:51.633Z,56.25
2022-12-01T11:00:59.494Z,56.25
2022-12-01T11:01:53.077Z,56.25
2022-12-01T11:02:52.242Z,50.62
2022-12-01T11:03:52.535Z,50.62
2022-12-01T11:04:52.812Z,50.62
2022-12-01T11:05:53.070Z,50.62
2022-12-01T11:06:53.356Z,50.62
2022-12-01T11:07:53.736Z,50.62
2022-12-01T11:08:53.882Z,50.62
2022-12-01T11:09:54.152Z,45.00
2022-12-01T11:10:54.436Z,50.62
2022-12-01T11:11:54.701Z,50.62
2022-12-01T11:12:54.982Z,50.62
2022-12-01T11:13:55.241Z,50.62
2022-12-01T11:14:55.519Z,45.00
2022-12-01T11:15:55.765Z,45.00
2022-12-01T11:16:56.085Z,45.00
2022-12-01T11:17:57.181Z,45.00
2022-12-01T11:18:56.692Z,45.00
2022-12-01T11:19:57.001Z,45.00
2022-12-01T11:20:57.242Z,45.00
2022-12-01T11:21:57.517Z,45.00
2022-12-01T11:22:57.782Z,45.00
2022-12-01T11:23:58.054Z,45.00
2022-12-01T11:24:58.343Z,45.00
2022-12-01T11:25:58.626Z,45.00
2022-12-01T11:26:58.913Z,45.00
2022-12-01T11:27:59.194Z,45.00
2022-12-01T11:28:59.467Z,45.00
2022-12-01T11:29:59.723Z,45.00
2022-12-01T11:30:59.983Z,45.00
2022-12-01T11:32:00.319Z,45.00
2022-12-01T11:33:00.522Z,45.00
2022-12-01T11:34:00.772Z,45.00
2022-12-01T11:35:01.046Z,45.00
2022-12-01T11:36:01.308Z,45.00
2022-12-01T11:37:01.563Z,45.00
2022-12-01T11:39:03.178Z,39.38
2022-12-01T11:40:02.366Z,39.38
2022-12-01T11:41:02.637Z,39.38
2022-12-01T11:42:02.897Z,39.38
2022-12-01T11:43:03.175Z,39.38
2022-12-01T11:44:06.266Z,39.38
2022-12-01T11:45:04.657Z,39.38
2022-12-01T11:46:04.020Z,39.38
2022-12-01T11:47:22.175Z,39.38
2022-12-01T11:48:05.556Z,39.38
2022-12-01T11:49:04.876Z,39.38
2022-12-01T11:50:05.147Z,39.38
2022-12-01T11:51:05.409Z,39.38
2022-12-01T11:52:05.676Z,33.75
2022-12-01T11:53:05.948Z,33.75
2022-12-01T11:54:06.187Z,33.75
2022-12-01T11:55:10.181Z,39.38
2022-12-01T11:56:06.677Z,39.38
2022-12-01T11:57:32.382Z,39.38
2022-12-01T11:58:08.297Z,39.38
2022-12-01T11:59:07.608Z,39.38
2022-12-01T12:00:07.878Z,33.75
2022-12-01T12:01:08.142Z,33.75
2022-12-01T12:02:15.365Z,33.75
2022-12-01T12:03:08.757Z,33.75
2022-12-01T12:04:08.908Z,33.75
2022-12-01T12:05:09.167Z,33.75
2022-12-01T12:06:38.872Z,33.75
2022-12-01T12:07:10.760Z,33.75
2022-12-01T12:08:10.070Z,28.12
2022-12-01T12:09:10.376Z,28.12
2022-12-01T12:10:10.639Z,28.12
2022-12-01T12:11:10.951Z,33.75
2022-12-01T12:12:11.140Z,33.75
2022-12-01T12:13:11.398Z,33.75
2022-12-01T12:14:11.641Z,33.75
2022-12-01T12:15:11.948Z,33.75
2022-12-01T12:16:12.189Z,33.75
2022-12-01T12:17:12.470Z,33.75
2022-12-01T12:18:12.741Z,33.75
2022-12-01T12:19:13.001Z,33.75
2022-12-01T12:20:13.853Z,33.75
2022-12-01T12:21:13.640Z,33.75
2022-12-01T12:22:13.894Z,33.75
2022-12-01T12:23:14.203Z,33.75
2022-12-01T12:24:14.452Z,33.75
2022-12-01T12:25:14.721Z,28.12
2022-12-01T12:26:14.973Z,28.12
2022-12-01T12:27:15.235Z,28.12
2022-12-01T12:28:15.501Z,28.12
2022-12-01T12:29:15.766Z,33.75
2022-12-01T12:30:16.018Z,33.75
2022-12-01T12:31:16.309Z,39.38
2022-12-01T12:32:16.586Z,39.38
2022-12-01T12:33:16.863Z,39.38
2022-12-01T12:34:17.123Z,39.38
2022-12-01T12:35:18.302Z,39.38
2022-12-01T12:36:17.622Z,39.38
2022-12-01T12:37:18.100Z,39.38
2022-12-01T12:38:18.195Z,33.75
2022-12-01T12:39:18.453Z,33.75
2022-12-01T12:40:18.695Z,33.75
2022-12-01T12:41:18.952Z,33.75
2022-12-01T12:42:19.205Z,33.75
2022-12-01T12:43:19.473Z,33.75
2022-12-01T12:44:19.712Z,28.12
2022-12-01T12:45:19.974Z,28.12
2022-12-01T12:46:20.302Z,28.12
2022-12-01T12:47:20.562Z,28.12
2022-12-01T12:48:20.825Z,28.12
2022-12-01T12:49:21.245Z,28.12
2022-12-01T12:50:21.404Z,28.12
2022-12-01T12:51:21.666Z,28.12
2022-12-01T12:52:21.926Z,28.12
2022-12-01T12:53:22.197Z,28.12
2022-12-01T12:54:22.561Z,28.12
2022-12-01T12:55:22.733Z,28.12
2022-12-01T12:56:22.985Z,33.75
2022-12-01T12:57:23.233Z,33.75
2022-12-01T12:58:23.497Z,33.75
2022-12-01T12:59:23.745Z,33.75
2022-12-01T13:00:24.011Z,33.75
2022-12-01T13:01:24.268Z,28.12
2022-12-01T13:02:24.555Z,28.12
2022-12-01T13:03:27.931Z,33.75
2022-12-01T13:04:26.048Z,33.75
2022-12-01T13:05:25.357Z,39.38
2022-12-01T13:06:25.631Z,39.38
2022-12-01T13:07:25.964Z,39.38
2022-12-01T13:08:26.238Z,39.38
2022-12-01T13:09:26.509Z,39.38
2022-12-01T13:10:26.765Z,39.38
2022-12-01T13:11:27.040Z,39.38
2022-12-01T13:12:27.302Z,39.38
2022-12-01T13:13:27.599Z,39.38